sensor_id;sensor_type;location;lat;lon;timestamp;temperature;humidity
71128;SHT30;59249;59.736;30.568;2024-02-26T00:00:46;4.75;92.18
71128;SHT30;59249;59.736;30.568;2024-02-26T00:03:15;4.83;92.09
71128;SHT30;59249;59.736;30.568;2024-02-26T00:05:45;4.76;92.24
71128;SHT30;59249;59.736;30.568;2024-02-26T00:08:19;4.80;92.39
71128;SHT30;59249;59.736;30.568;2024-02-26T00:10:48;4.76;92.57
71128;SHT30;59249;59.736;30.568;2024-02-26T00:13:19;4.86;92.49
71128;SHT30;59249;59.736;30.568;2024-02-26T00:15:54;4.86;92.30
71128;SHT30;59249;59.736;30.568;2024-02-26T00:18:25;4.79;92.31
71128;SHT30;59249;59.736;30.568;2024-02-26T00:20:59;4.86;92.20
71128;SHT30;59249;59.736;30.568;2024-02-26T00:23:33;4.69;92.36
71128;SHT30;59249;59.736;30.568;2024-02-26T00:26:03;4.82;92.49
71128;SHT30;59249;59.736;30.568;2024-02-26T00:28:39;4.77;92.60
71128;SHT30;59249;59.736;30.568;2024-02-26T00:31:12;4.75;92.72
71128;SHT30;59249;59.736;30.568;2024-02-26T00:33:41;4.64;92.92
71128;SHT30;59249;59.736;30.568;2024-02-26T00:36:11;4.72;93.01
71128;SHT30;59249;59.736;30.568;2024-02-26T00:38:40;4.72;93.31
71128;SHT30;59249;59.736;30.568;2024-02-26T00:41:19;4.66;93.18
71128;SHT30;59249;59.736;30.568;2024-02-26T00:43:53;4.66;93.34
71128;SHT30;59249;59.736;30.568;2024-02-26T00:46:28;4.69;93.30
71128;SHT30;59249;59.736;30.568;2024-02-26T00:48:58;4.56;93.66
71128;SHT30;59249;59.736;30.568;2024-02-26T00:51:31;4.62;93.75
71128;SHT30;59249;59.736;30.568;2024-02-26T00:54:10;4.56;93.84
71128;SHT30;59249;59.736;30.568;2024-02-26T00:56:39;4.60;93.86
71128;SHT30;59249;59.736;30.568;2024-02-26T00:59:11;4.62;94.05
71128;SHT30;59249;59.736;30.568;2024-02-26T01:01:43;4.58;93.98
71128;SHT30;59249;59.736;30.568;2024-02-26T01:04:15;4.69;94.05
71128;SHT30;59249;59.736;30.568;2024-02-26T01:06:57;4.58;94.08
71128;SHT30;59249;59.736;30.568;2024-02-26T01:09:37;4.70;94.03
71128;SHT30;59249;59.736;30.568;2024-02-26T01:12:09;4.58;94.35
71128;SHT30;59249;59.736;30.568;2024-02-26T01:14:59;4.61;94.38
71128;SHT30;59249;59.736;30.568;2024-02-26T01:17:36;4.57;94.64
71128;SHT30;59249;59.736;30.568;2024-02-26T01:20:08;4.54;94.77
71128;SHT30;59249;59.736;30.568;2024-02-26T01:22:49;4.52;94.63
71128;SHT30;59249;59.736;30.568;2024-02-26T01:25:20;4.60;94.81
71128;SHT30;59249;59.736;30.568;2024-02-26T01:27:50;4.53;94.83
71128;SHT30;59249;59.736;30.568;2024-02-26T01:30:21;4.53;94.82
71128;SHT30;59249;59.736;30.568;2024-02-26T01:32:55;4.46;95.47
71128;SHT30;59249;59.736;30.568;2024-02-26T01:35:38;4.41;95.62
71128;SHT30;59249;59.736;30.568;2024-02-26T01:38:07;4.46;95.71
71128;SHT30;59249;59.736;30.568;2024-02-26T01:40:37;4.53;95.94
71128;SHT30;59249;59.736;30.568;2024-02-26T01:43:16;4.51;95.64
71128;SHT30;59249;59.736;30.568;2024-02-26T01:46:06;4.35;95.71
71128;SHT30;59249;59.736;30.568;2024-02-26T01:48:44;4.51;95.80
71128;SHT30;59249;59.736;30.568;2024-02-26T01:51:24;4.52;95.70
71128;SHT30;59249;59.736;30.568;2024-02-26T01:53:57;4.48;95.64
71128;SHT30;59249;59.736;30.568;2024-02-26T01:56:35;4.55;95.71
71128;SHT30;59249;59.736;30.568;2024-02-26T01:59:08;4.41;96.04
71128;SHT30;59249;59.736;30.568;2024-02-26T02:01:50;4.32;96.51
71128;SHT30;59249;59.736;30.568;2024-02-26T02:04:25;4.27;96.68
71128;SHT30;59249;59.736;30.568;2024-02-26T02:06:59;4.24;96.74
71128;SHT30;59249;59.736;30.568;2024-02-26T02:09:37;4.31;97.27
71128;SHT30;59249;59.736;30.568;2024-02-26T02:12:09;4.28;97.26
71128;SHT30;59249;59.736;30.568;2024-02-26T02:14:51;4.39;97.19
71128;SHT30;59249;59.736;30.568;2024-02-26T02:17:31;4.29;96.97
71128;SHT30;59249;59.736;30.568;2024-02-26T02:20:08;4.33;96.86
71128;SHT30;59249;59.736;30.568;2024-02-26T02:22:56;4.35;97.24
71128;SHT30;59249;59.736;30.568;2024-02-26T02:25:43;4.16;97.83
71128;SHT30;59249;59.736;30.568;2024-02-26T02:28:12;4.32;97.49
71128;SHT30;59249;59.736;30.568;2024-02-26T02:30:46;4.24;97.76
71128;SHT30;59249;59.736;30.568;2024-02-26T02:33:20;4.23;97.30
71128;SHT30;59249;59.736;30.568;2024-02-26T02:35:51;4.16;97.50
71128;SHT30;59249;59.736;30.568;2024-02-26T02:38:26;4.18;97.78
71128;SHT30;59249;59.736;30.568;2024-02-26T02:40:59;4.18;97.82
71128;SHT30;59249;59.736;30.568;2024-02-26T02:43:29;4.17;97.90
71128;SHT30;59249;59.736;30.568;2024-02-26T02:45:59;4.30;97.99
71128;SHT30;59249;59.736;30.568;2024-02-26T02:48:30;4.22;97.77
71128;SHT30;59249;59.736;30.568;2024-02-26T02:51:01;4.25;97.72
71128;SHT30;59249;59.736;30.568;2024-02-26T02:53:46;4.25;97.79
71128;SHT30;59249;59.736;30.568;2024-02-26T02:56:17;4.23;97.59
71128;SHT30;59249;59.736;30.568;2024-02-26T02:58:48;4.26;97.95
71128;SHT30;59249;59.736;30.568;2024-02-26T03:01:19;4.34;97.84
71128;SHT30;59249;59.736;30.568;2024-02-26T03:03:48;4.29;97.60
71128;SHT30;59249;59.736;30.568;2024-02-26T03:06:20;4.30;97.65
71128;SHT30;59249;59.736;30.568;2024-02-26T03:08:52;4.28;97.69
71128;SHT30;59249;59.736;30.568;2024-02-26T03:11:22;4.20;97.65
71128;SHT30;59249;59.736;30.568;2024-02-26T03:13:55;4.30;97.88
71128;SHT30;59249;59.736;30.568;2024-02-26T03:16:24;4.25;97.88
71128;SHT30;59249;59.736;30.568;2024-02-26T03:18:53;4.28;97.42
71128;SHT30;59249;59.736;30.568;2024-02-26T03:21:23;4.32;97.59
71128;SHT30;59249;59.736;30.568;2024-02-26T03:23:55;4.25;97.61
71128;SHT30;59249;59.736;30.568;2024-02-26T03:26:25;4.33;97.51
71128;SHT30;59249;59.736;30.568;2024-02-26T03:28:54;4.31;97.32
71128;SHT30;59249;59.736;30.568;2024-02-26T03:31:23;4.25;97.77
71128;SHT30;59249;59.736;30.568;2024-02-26T03:33:52;4.34;97.45
71128;SHT30;59249;59.736;30.568;2024-02-26T03:36:21;4.40;97.40
71128;SHT30;59249;59.736;30.568;2024-02-26T03:38:52;4.27;97.21
71128;SHT30;59249;59.736;30.568;2024-02-26T03:41:22;4.38;97.37
71128;SHT30;59249;59.736;30.568;2024-02-26T03:43:51;4.34;97.53
71128;SHT30;59249;59.736;30.568;2024-02-26T03:46:24;4.24;97.56
71128;SHT30;59249;59.736;30.568;2024-02-26T03:48:56;4.31;97.41
71128;SHT30;59249;59.736;30.568;2024-02-26T03:51:36;4.17;97.43
71128;SHT30;59249;59.736;30.568;2024-02-26T03:54:09;4.16;97.83
71128;SHT30;59249;59.736;30.568;2024-02-26T03:56:40;4.08;98.12
71128;SHT30;59249;59.736;30.568;2024-02-26T03:59:09;4.12;98.43
71128;SHT30;59249;59.736;30.568;2024-02-26T04:01:38;4.09;98.14
71128;SHT30;59249;59.736;30.568;2024-02-26T04:04:11;4.07;98.13
71128;SHT30;59249;59.736;30.568;2024-02-26T04:06:45;4.11;98.06
71128;SHT30;59249;59.736;30.568;2024-02-26T04:09:17;4.07;98.58
71128;SHT30;59249;59.736;30.568;2024-02-26T04:11:48;4.07;98.61
71128;SHT30;59249;59.736;30.568;2024-02-26T04:14:17;4.06;98.60
71128;SHT30;59249;59.736;30.568;2024-02-26T04:16:47;4.02;98.81
71128;SHT30;59249;59.736;30.568;2024-02-26T04:19:18;4.02;98.84
71128;SHT30;59249;59.736;30.568;2024-02-26T04:21:48;4.16;98.77
71128;SHT30;59249;59.736;30.568;2024-02-26T04:24:20;4.07;98.95
71128;SHT30;59249;59.736;30.568;2024-02-26T04:26:51;3.95;98.88
71128;SHT30;59249;59.736;30.568;2024-02-26T04:29:21;4.09;99.02
71128;SHT30;59249;59.736;30.568;2024-02-26T04:31:52;4.06;99.16
71128;SHT30;59249;59.736;30.568;2024-02-26T04:34:22;4.02;99.28
71128;SHT30;59249;59.736;30.568;2024-02-26T04:36:51;4.04;98.86
71128;SHT30;59249;59.736;30.568;2024-02-26T04:39:21;4.07;99.17
71128;SHT30;59249;59.736;30.568;2024-02-26T04:41:52;4.11;98.75
71128;SHT30;59249;59.736;30.568;2024-02-26T04:44:21;4.14;98.56
71128;SHT30;59249;59.736;30.568;2024-02-26T04:46:50;4.14;98.51
71128;SHT30;59249;59.736;30.568;2024-02-26T04:49:19;4.06;98.81
71128;SHT30;59249;59.736;30.568;2024-02-26T04:51:48;4.07;98.96
71128;SHT30;59249;59.736;30.568;2024-02-26T04:54:17;4.08;98.92
71128;SHT30;59249;59.736;30.568;2024-02-26T04:56:46;3.96;99.04
71128;SHT30;59249;59.736;30.568;2024-02-26T04:59:17;3.96;99.14
71128;SHT30;59249;59.736;30.568;2024-02-26T05:01:48;4.05;99.31
71128;SHT30;59249;59.736;30.568;2024-02-26T05:04:19;4.11;98.71
71128;SHT30;59249;59.736;30.568;2024-02-26T05:06:48;4.06;99.06
71128;SHT30;59249;59.736;30.568;2024-02-26T05:09:18;4.08;98.46
71128;SHT30;59249;59.736;30.568;2024-02-26T05:11:48;4.04;98.67
71128;SHT30;59249;59.736;30.568;2024-02-26T05:14:18;4.04;98.49
71128;SHT30;59249;59.736;30.568;2024-02-26T05:16:49;4.07;98.40
71128;SHT30;59249;59.736;30.568;2024-02-26T05:19:18;3.96;98.77
71128;SHT30;59249;59.736;30.568;2024-02-26T05:21:49;4.01;98.84
71128;SHT30;59249;59.736;30.568;2024-02-26T05:24:18;4.05;98.73
71128;SHT30;59249;59.736;30.568;2024-02-26T05:26:50;4.12;98.72
71128;SHT30;59249;59.736;30.568;2024-02-26T05:29:20;4.06;98.78
71128;SHT30;59249;59.736;30.568;2024-02-26T05:31:50;4.05;98.56
71128;SHT30;59249;59.736;30.568;2024-02-26T05:34:22;4.14;98.57
71128;SHT30;59249;59.736;30.568;2024-02-26T05:36:52;4.09;99.00
71128;SHT30;59249;59.736;30.568;2024-02-26T05:39:21;4.14;98.57
71128;SHT30;59249;59.736;30.568;2024-02-26T05:41:53;3.95;98.44
71128;SHT30;59249;59.736;30.568;2024-02-26T05:44:26;4.07;98.95
71128;SHT30;59249;59.736;30.568;2024-02-26T05:46:56;4.12;98.66
71128;SHT30;59249;59.736;30.568;2024-02-26T05:49:28;4.08;98.56
71128;SHT30;59249;59.736;30.568;2024-02-26T05:52:04;4.05;98.71
71128;SHT30;59249;59.736;30.568;2024-02-26T05:54:34;4.07;98.46
71128;SHT30;59249;59.736;30.568;2024-02-26T05:57:04;4.17;98.46
71128;SHT30;59249;59.736;30.568;2024-02-26T05:59:36;4.10;98.39
71128;SHT30;59249;59.736;30.568;2024-02-26T06:02:05;4.17;98.34
71128;SHT30;59249;59.736;30.568;2024-02-26T06:04:36;4.21;98.22
71128;SHT30;59249;59.736;30.568;2024-02-26T06:07:06;4.19;98.13
71128;SHT30;59249;59.736;30.568;2024-02-26T06:09:35;4.17;98.20
71128;SHT30;59249;59.736;30.568;2024-02-26T06:12:05;4.16;97.96
71128;SHT30;59249;59.736;30.568;2024-02-26T06:14:36;4.11;97.84
71128;SHT30;59249;59.736;30.568;2024-02-26T06:17:05;4.04;97.87
71128;SHT30;59249;59.736;30.568;2024-02-26T06:19:38;4.10;98.18
71128;SHT30;59249;59.736;30.568;2024-02-26T06:22:08;4.16;98.06
71128;SHT30;59249;59.736;30.568;2024-02-26T06:24:36;4.23;98.03
71128;SHT30;59249;59.736;30.568;2024-02-26T06:27:06;4.15;98.00
71128;SHT30;59249;59.736;30.568;2024-02-26T06:29:37;4.24;97.57
71128;SHT30;59249;59.736;30.568;2024-02-26T06:32:07;4.27;97.78
71128;SHT30;59249;59.736;30.568;2024-02-26T06:34:36;4.15;97.50
71128;SHT30;59249;59.736;30.568;2024-02-26T06:37:06;4.25;97.33
71128;SHT30;59249;59.736;30.568;2024-02-26T06:39:35;4.18;97.32
71128;SHT30;59249;59.736;30.568;2024-02-26T06:42:06;4.18;97.62
71128;SHT30;59249;59.736;30.568;2024-02-26T06:44:36;4.33;97.32
71128;SHT30;59249;59.736;30.568;2024-02-26T06:47:06;4.20;97.30
71128;SHT30;59249;59.736;30.568;2024-02-26T06:49:35;4.24;97.15
71128;SHT30;59249;59.736;30.568;2024-02-26T06:52:04;4.11;96.84
71128;SHT30;59249;59.736;30.568;2024-02-26T06:54:34;4.13;97.02
71128;SHT30;59249;59.736;30.568;2024-02-26T06:57:07;4.12;97.09
71128;SHT30;59249;59.736;30.568;2024-02-26T07:00:14;4.15;96.87
71128;SHT30;59249;59.736;30.568;2024-02-26T07:02:46;4.25;96.80
71128;SHT30;59249;59.736;30.568;2024-02-26T07:05:19;4.25;96.72
71128;SHT30;59249;59.736;30.568;2024-02-26T07:07:51;4.28;96.73
71128;SHT30;59249;59.736;30.568;2024-02-26T07:10:29;4.28;96.59
71128;SHT30;59249;59.736;30.568;2024-02-26T07:13:00;4.25;96.60
71128;SHT30;59249;59.736;30.568;2024-02-26T07:15:35;4.22;96.46
71128;SHT30;59249;59.736;30.568;2024-02-26T07:18:07;4.33;96.47
71128;SHT30;59249;59.736;30.568;2024-02-26T07:20:39;4.26;96.46
71128;SHT30;59249;59.736;30.568;2024-02-26T07:23:20;4.15;96.51
71128;SHT30;59249;59.736;30.568;2024-02-26T07:25:56;4.19;96.25
71128;SHT30;59249;59.736;30.568;2024-02-26T07:28:36;4.26;96.28
71128;SHT30;59249;59.736;30.568;2024-02-26T07:31:12;4.25;96.23
71128;SHT30;59249;59.736;30.568;2024-02-26T07:33:48;4.21;96.40
71128;SHT30;59249;59.736;30.568;2024-02-26T07:36:20;4.30;96.38
71128;SHT30;59249;59.736;30.568;2024-02-26T07:38:53;4.39;96.33
71128;SHT30;59249;59.736;30.568;2024-02-26T07:41:25;4.28;96.35
71128;SHT30;59249;59.736;30.568;2024-02-26T07:43:57;4.33;96.19
71128;SHT30;59249;59.736;30.568;2024-02-26T07:46:30;4.40;96.34
71128;SHT30;59249;59.736;30.568;2024-02-26T07:49:00;4.30;96.26
71128;SHT30;59249;59.736;30.568;2024-02-26T07:51:40;4.46;96.09
71128;SHT30;59249;59.736;30.568;2024-02-26T07:54:21;4.31;96.14
71128;SHT30;59249;59.736;30.568;2024-02-26T07:56:54;4.28;96.19
71128;SHT30;59249;59.736;30.568;2024-02-26T07:59:25;4.44;96.42
71128;SHT30;59249;59.736;30.568;2024-02-26T08:02:00;4.46;95.93
71128;SHT30;59249;59.736;30.568;2024-02-26T08:04:34;4.38;95.74
71128;SHT30;59249;59.736;30.568;2024-02-26T08:07:06;4.49;95.82
71128;SHT30;59249;59.736;30.568;2024-02-26T08:09:40;4.58;95.65
71128;SHT30;59249;59.736;30.568;2024-02-26T08:12:11;4.52;95.59
71128;SHT30;59249;59.736;30.568;2024-02-26T08:14:45;4.46;95.43
71128;SHT30;59249;59.736;30.568;2024-02-26T08:17:28;4.46;95.19
71128;SHT30;59249;59.736;30.568;2024-02-26T08:20:00;4.46;95.05
71128;SHT30;59249;59.736;30.568;2024-02-26T08:22:31;4.46;95.30
71128;SHT30;59249;59.736;30.568;2024-02-26T08:25:04;4.50;94.79
71128;SHT30;59249;59.736;30.568;2024-02-26T08:27:35;4.45;94.82
71128;SHT30;59249;59.736;30.568;2024-02-26T08:30:07;4.47;94.93
71128;SHT30;59249;59.736;30.568;2024-02-26T08:32:42;4.48;94.93
71128;SHT30;59249;59.736;30.568;2024-02-26T08:35:20;4.53;95.16
71128;SHT30;59249;59.736;30.568;2024-02-26T08:37:52;4.57;94.40
71128;SHT30;59249;59.736;30.568;2024-02-26T08:40:22;4.70;94.45
71128;SHT30;59249;59.736;30.568;2024-02-26T08:42:57;4.72;94.47
71128;SHT30;59249;59.736;30.568;2024-02-26T08:45:29;4.60;94.08
71128;SHT30;59249;59.736;30.568;2024-02-26T08:48:03;4.68;93.71
71128;SHT30;59249;59.736;30.568;2024-02-26T08:50:59;4.52;93.72
71128;SHT30;59249;59.736;30.568;2024-02-26T08:53:35;4.53;93.79
71128;SHT30;59249;59.736;30.568;2024-02-26T08:56:11;4.53;93.71
71128;SHT30;59249;59.736;30.568;2024-02-26T08:58:47;4.58;93.94
71128;SHT30;59249;59.736;30.568;2024-02-26T09:01:28;4.67;93.85
71128;SHT30;59249;59.736;30.568;2024-02-26T09:04:14;4.62;92.94
71128;SHT30;59249;59.736;30.568;2024-02-26T09:06:49;4.65;92.75
71128;SHT30;59249;59.736;30.568;2024-02-26T09:09:18;4.62;92.92
71128;SHT30;59249;59.736;30.568;2024-02-26T09:11:48;4.60;92.92
71128;SHT30;59249;59.736;30.568;2024-02-26T09:14:27;4.60;92.97
71128;SHT30;59249;59.736;30.568;2024-02-26T09:16:58;4.51;92.80
71128;SHT30;59249;59.736;30.568;2024-02-26T09:19:31;4.43;92.31
71128;SHT30;59249;59.736;30.568;2024-02-26T09:22:02;4.56;92.75
71128;SHT30;59249;59.736;30.568;2024-02-26T09:24:57;4.50;92.75
71128;SHT30;59249;59.736;30.568;2024-02-26T09:27:29;4.52;92.52
71128;SHT30;59249;59.736;30.568;2024-02-26T09:30:00;4.40;92.64
71128;SHT30;59249;59.736;30.568;2024-02-26T09:32:32;4.40;92.68
71128;SHT30;59249;59.736;30.568;2024-02-26T09:35:17;4.56;92.36
71128;SHT30;59249;59.736;30.568;2024-02-26T09:37:50;4.53;92.28
71128;SHT30;59249;59.736;30.568;2024-02-26T09:40:29;4.56;92.46
71128;SHT30;59249;59.736;30.568;2024-02-26T09:43:00;4.58;92.58
71128;SHT30;59249;59.736;30.568;2024-02-26T09:45:38;4.59;92.19
71128;SHT30;59249;59.736;30.568;2024-02-26T09:48:25;4.62;91.72
71128;SHT30;59249;59.736;30.568;2024-02-26T09:50:57;4.49;91.74
71128;SHT30;59249;59.736;30.568;2024-02-26T09:53:32;4.56;91.98
71128;SHT30;59249;59.736;30.568;2024-02-26T09:56:09;4.58;91.84
71128;SHT30;59249;59.736;30.568;2024-02-26T09:58:43;4.69;91.57
71128;SHT30;59249;59.736;30.568;2024-02-26T10:01:28;4.68;91.48
71128;SHT30;59249;59.736;30.568;2024-02-26T10:04:10;4.68;91.60
71128;SHT30;59249;59.736;30.568;2024-02-26T10:06:42;4.84;91.48
71128;SHT30;59249;59.736;30.568;2024-02-26T10:09:17;4.70;91.12
71128;SHT30;59249;59.736;30.568;2024-02-26T10:11:49;4.90;91.36
71128;SHT30;59249;59.736;30.568;2024-02-26T10:14:20;4.94;91.06
71128;SHT30;59249;59.736;30.568;2024-02-26T10:16:52;4.91;90.73
71128;SHT30;59249;59.736;30.568;2024-02-26T10:19:27;4.93;90.69
71128;SHT30;59249;59.736;30.568;2024-02-26T10:22:02;5.03;90.47
71128;SHT30;59249;59.736;30.568;2024-02-26T10:24:33;4.94;90.13
71128;SHT30;59249;59.736;30.568;2024-02-26T10:27:08;5.12;90.46
71128;SHT30;59249;59.736;30.568;2024-02-26T10:29:41;5.04;89.80
71128;SHT30;59249;59.736;30.568;2024-02-26T10:32:11;5.00;89.85
71128;SHT30;59249;59.736;30.568;2024-02-26T10:34:45;5.04;89.83
71128;SHT30;59249;59.736;30.568;2024-02-26T10:37:19;5.07;90.01
71128;SHT30;59249;59.736;30.568;2024-02-26T10:39:57;5.09;89.66
71128;SHT30;59249;59.736;30.568;2024-02-26T10:42:30;5.02;89.53
71128;SHT30;59249;59.736;30.568;2024-02-26T10:45:01;5.08;89.73
71128;SHT30;59249;59.736;30.568;2024-02-26T10:47:41;5.00;89.68
71128;SHT30;59249;59.736;30.568;2024-02-26T10:50:16;5.10;89.81
71128;SHT30;59249;59.736;30.568;2024-02-26T10:52:47;5.11;89.50
71128;SHT30;59249;59.736;30.568;2024-02-26T10:55:17;5.20;90.22
71128;SHT30;59249;59.736;30.568;2024-02-26T10:57:52;5.16;89.63
71128;SHT30;59249;59.736;30.568;2024-02-26T11:00:24;5.24;89.57
71128;SHT30;59249;59.736;30.568;2024-02-26T11:02:56;5.21;89.78
71128;SHT30;59249;59.736;30.568;2024-02-26T11:05:29;5.34;89.46
71128;SHT30;59249;59.736;30.568;2024-02-26T11:08:00;5.19;89.63
71128;SHT30;59249;59.736;30.568;2024-02-26T11:10:31;5.23;89.73
71128;SHT30;59249;59.736;30.568;2024-02-26T11:13:04;5.37;89.75
71128;SHT30;59249;59.736;30.568;2024-02-26T11:15:34;5.38;89.39
71128;SHT30;59249;59.736;30.568;2024-02-26T11:18:05;5.46;89.24
71128;SHT30;59249;59.736;30.568;2024-02-26T11:20:40;5.33;88.72
71128;SHT30;59249;59.736;30.568;2024-02-26T11:23:14;5.21;89.27
71128;SHT30;59249;59.736;30.568;2024-02-26T11:25:43;5.39;89.28
71128;SHT30;59249;59.736;30.568;2024-02-26T11:28:15;5.44;88.62
71128;SHT30;59249;59.736;30.568;2024-02-26T11:30:49;5.35;88.99
71128;SHT30;59249;59.736;30.568;2024-02-26T11:33:20;5.42;88.42
71128;SHT30;59249;59.736;30.568;2024-02-26T11:35:50;5.44;88.36
71128;SHT30;59249;59.736;30.568;2024-02-26T11:38:24;5.53;88.17
71128;SHT30;59249;59.736;30.568;2024-02-26T11:40:59;5.49;87.95
71128;SHT30;59249;59.736;30.568;2024-02-26T11:43:50;5.42;88.05
71128;SHT30;59249;59.736;30.568;2024-02-26T11:46:26;5.35;87.83
71128;SHT30;59249;59.736;30.568;2024-02-26T11:48:58;5.26;87.77
71128;SHT30;59249;59.736;30.568;2024-02-26T11:51:33;5.38;88.52
71128;SHT30;59249;59.736;30.568;2024-02-26T11:54:04;5.39;88.42
71128;SHT30;59249;59.736;30.568;2024-02-26T11:56:34;5.46;88.09
71128;SHT30;59249;59.736;30.568;2024-02-26T11:59:09;5.32;88.07
71128;SHT30;59249;59.736;30.568;2024-02-26T12:01:44;5.39;88.14
71128;SHT30;59249;59.736;30.568;2024-02-26T12:04:19;5.38;88.18
71128;SHT30;59249;59.736;30.568;2024-02-26T12:06:52;5.28;88.11
71128;SHT30;59249;59.736;30.568;2024-02-26T12:09:37;5.23;88.04
71128;SHT30;59249;59.736;30.568;2024-02-26T12:12:17;5.30;88.28
71128;SHT30;59249;59.736;30.568;2024-02-26T12:14:52;5.36;88.26
71128;SHT30;59249;59.736;30.568;2024-02-26T12:17:33;5.36;88.02
71128;SHT30;59249;59.736;30.568;2024-02-26T12:20:14;5.44;88.29
71128;SHT30;59249;59.736;30.568;2024-02-26T12:22:49;5.52;87.78
71128;SHT30;59249;59.736;30.568;2024-02-26T12:25:33;5.39;88.07
71128;SHT30;59249;59.736;30.568;2024-02-26T12:28:07;5.42;87.91
71128;SHT30;59249;59.736;30.568;2024-02-26T12:30:53;5.53;87.58
71128;SHT30;59249;59.736;30.568;2024-02-26T12:33:22;5.57;87.66
71128;SHT30;59249;59.736;30.568;2024-02-26T12:35:53;5.49;87.03
71128;SHT30;59249;59.736;30.568;2024-02-26T12:38:25;5.55;87.20
71128;SHT30;59249;59.736;30.568;2024-02-26T12:41:00;5.55;86.96
71128;SHT30;59249;59.736;30.568;2024-02-26T12:43:30;5.46;87.23
71128;SHT30;59249;59.736;30.568;2024-02-26T12:46:03;5.44;87.51
71128;SHT30;59249;59.736;30.568;2024-02-26T12:48:32;5.32;87.46
71128;SHT30;59249;59.736;30.568;2024-02-26T12:51:02;5.38;87.77
71128;SHT30;59249;59.736;30.568;2024-02-26T12:53:32;5.26;87.82
71128;SHT30;59249;59.736;30.568;2024-02-26T12:56:03;5.19;88.06
71128;SHT30;59249;59.736;30.568;2024-02-26T12:58:36;5.21;88.15
71128;SHT30;59249;59.736;30.568;2024-02-26T13:01:07;5.19;88.51
71128;SHT30;59249;59.736;30.568;2024-02-26T13:03:43;5.14;88.75
71128;SHT30;59249;59.736;30.568;2024-02-26T13:06:14;5.14;88.63
71128;SHT30;59249;59.736;30.568;2024-02-26T13:08:44;5.07;88.70
71128;SHT30;59249;59.736;30.568;2024-02-26T13:11:16;5.03;88.92
71128;SHT30;59249;59.736;30.568;2024-02-26T13:13:48;5.07;88.84
71128;SHT30;59249;59.736;30.568;2024-02-26T13:16:18;5.06;88.85
71128;SHT30;59249;59.736;30.568;2024-02-26T13:18:47;4.97;88.87
71128;SHT30;59249;59.736;30.568;2024-02-26T13:21:18;4.88;89.25
71128;SHT30;59249;59.736;30.568;2024-02-26T13:23:53;4.90;89.07
71128;SHT30;59249;59.736;30.568;2024-02-26T13:26:24;4.71;89.55
71128;SHT30;59249;59.736;30.568;2024-02-26T13:29:00;4.79;89.55
71128;SHT30;59249;59.736;30.568;2024-02-26T13:31:32;4.81;89.92
71128;SHT30;59249;59.736;30.568;2024-02-26T13:34:11;4.85;90.17
71128;SHT30;59249;59.736;30.568;2024-02-26T13:36:51;4.80;89.68
71128;SHT30;59249;59.736;30.568;2024-02-26T13:39:24;4.85;89.67
71128;SHT30;59249;59.736;30.568;2024-02-26T13:41:55;4.79;89.99
71128;SHT30;59249;59.736;30.568;2024-02-26T13:44:25;4.78;90.08
71128;SHT30;59249;59.736;30.568;2024-02-26T13:46:53;4.72;90.10
71128;SHT30;59249;59.736;30.568;2024-02-26T13:49:22;4.62;90.33
71128;SHT30;59249;59.736;30.568;2024-02-26T13:51:52;4.73;90.22
71128;SHT30;59249;59.736;30.568;2024-02-26T13:54:21;4.57;90.57
71128;SHT30;59249;59.736;30.568;2024-02-26T13:56:50;4.59;91.07
71128;SHT30;59249;59.736;30.568;2024-02-26T13:59:21;4.56;91.14
71128;SHT30;59249;59.736;30.568;2024-02-26T14:01:50;4.65;91.09
71128;SHT30;59249;59.736;30.568;2024-02-26T14:04:20;4.58;91.19
71128;SHT30;59249;59.736;30.568;2024-02-26T14:06:49;4.55;91.46
71128;SHT30;59249;59.736;30.568;2024-02-26T14:09:19;4.55;91.61
71128;SHT30;59249;59.736;30.568;2024-02-26T14:11:54;4.60;91.45
71128;SHT30;59249;59.736;30.568;2024-02-26T14:14:24;4.48;91.59
71128;SHT30;59249;59.736;30.568;2024-02-26T14:16:55;4.34;91.91
71128;SHT30;59249;59.736;30.568;2024-02-26T14:19:26;4.53;92.06
71128;SHT30;59249;59.736;30.568;2024-02-26T14:22:01;4.51;92.03
71128;SHT30;59249;59.736;30.568;2024-02-26T14:24:32;4.45;92.01
71128;SHT30;59249;59.736;30.568;2024-02-26T14:27:01;4.55;92.12
71128;SHT30;59249;59.736;30.568;2024-02-26T14:29:33;4.50;92.06
71128;SHT30;59249;59.736;30.568;2024-02-26T14:32:03;4.46;92.41
71128;SHT30;59249;59.736;30.568;2024-02-26T14:34:34;4.54;92.20
71128;SHT30;59249;59.736;30.568;2024-02-26T14:37:04;4.54;92.27
71128;SHT30;59249;59.736;30.568;2024-02-26T14:39:34;4.42;92.54
71128;SHT30;59249;59.736;30.568;2024-02-26T14:42:06;4.57;92.41
71128;SHT30;59249;59.736;30.568;2024-02-26T14:44:43;4.63;92.30
71128;SHT30;59249;59.736;30.568;2024-02-26T14:47:14;4.52;92.21
71128;SHT30;59249;59.736;30.568;2024-02-26T14:49:43;4.45;92.52
71128;SHT30;59249;59.736;30.568;2024-02-26T14:52:18;4.55;92.24
71128;SHT30;59249;59.736;30.568;2024-02-26T14:54:47;4.45;92.70
71128;SHT30;59249;59.736;30.568;2024-02-26T14:57:16;4.55;93.00
71128;SHT30;59249;59.736;30.568;2024-02-26T14:59:46;4.40;92.86
71128;SHT30;59249;59.736;30.568;2024-02-26T15:02:16;4.45;93.08
71128;SHT30;59249;59.736;30.568;2024-02-26T15:04:45;4.41;93.25
71128;SHT30;59249;59.736;30.568;2024-02-26T15:07:15;4.44;93.11
71128;SHT30;59249;59.736;30.568;2024-02-26T15:09:44;4.46;93.22
71128;SHT30;59249;59.736;30.568;2024-02-26T15:12:13;4.40;93.32
71128;SHT30;59249;59.736;30.568;2024-02-26T15:14:46;4.27;93.60
71128;SHT30;59249;59.736;30.568;2024-02-26T15:17:16;4.42;93.60
71128;SHT30;59249;59.736;30.568;2024-02-26T15:19:44;4.33;93.84
71128;SHT30;59249;59.736;30.568;2024-02-26T15:22:14;4.41;94.13
71128;SHT30;59249;59.736;30.568;2024-02-26T15:24:44;4.21;93.94
71128;SHT30;59249;59.736;30.568;2024-02-26T15:27:15;4.25;93.98
71128;SHT30;59249;59.736;30.568;2024-02-26T15:29:47;4.25;94.24
71128;SHT30;59249;59.736;30.568;2024-02-26T15:32:17;4.15;94.66
71128;SHT30;59249;59.736;30.568;2024-02-26T15:34:47;4.25;94.68
71128;SHT30;59249;59.736;30.568;2024-02-26T15:37:17;4.20;94.79
71128;SHT30;59249;59.736;30.568;2024-02-26T15:39:47;4.24;94.75
71128;SHT30;59249;59.736;30.568;2024-02-26T15:42:16;4.25;94.93
71128;SHT30;59249;59.736;30.568;2024-02-26T15:44:46;4.20;94.89
71128;SHT30;59249;59.736;30.568;2024-02-26T15:47:15;4.16;95.18
71128;SHT30;59249;59.736;30.568;2024-02-26T15:49:45;4.21;95.10
71128;SHT30;59249;59.736;30.568;2024-02-26T15:52:14;4.21;95.43
71128;SHT30;59249;59.736;30.568;2024-02-26T15:54:43;4.32;95.51
71128;SHT30;59249;59.736;30.568;2024-02-26T15:57:12;4.15;95.83
71128;SHT30;59249;59.736;30.568;2024-02-26T15:59:45;4.23;95.86
71128;SHT30;59249;59.736;30.568;2024-02-26T16:02:16;4.18;95.66
71128;SHT30;59249;59.736;30.568;2024-02-26T16:04:46;4.07;96.38